Blairsville, GA (30512)

9:54 PM EST on December 05, 2016 (GMT -0500)
Old England | | Change Station

Elev 1883 ft 34.90 °N, 84.03 °W | Updated 4 minutes ago

Rain
Rain
51.1 °F
Feels Like 51.1 °F
N
4.0
Wind Variable Wind from SE
Gusts 7.0 mph

Today
High -- | Low -- °F
--% Chance of Precip.
Yesterday
High -- | Low -- °F
Precip. -- in
Pressure 29.87 in
Visibility 1.5 miles
Clouds Mostly Cloudy 200 ft
Mostly Cloudy 2300 ft
Overcast 9000 ft
Dew Point 50 °F
Humidity 96%
Rainfall 0.30 in
Snow Depth Not available.
7:29 AM 5:24 PM
Waxing Crescent, 37% visible
METAR KRHP 060245Z AUTO 00000KT 1 1/2SM RA BKN002 BKN023 OVC090 11/11 A2987 RMK AO2 P0001 T01050105
Pressure 29.87 in
Visibility 1.5 miles
Clouds Mostly Cloudy 200 ft
Mostly Cloudy 2300 ft
Overcast 9000 ft
Dew Point 50 °F
Humidity 96%
Rainfall 0.30 in
Snow Depth Not available.
7:29 AM 5:24 PM
Waxing Crescent, 37% visible
METAR KRHP 060245Z AUTO 00000KT 1 1/2SM RA BKN002 BKN023 OVC090 11/11 A2987 RMK AO2 P0001 T01050105

10-Day Weather Forecast

Almanac

Astronomy

Dec. 05, 2016 Rise Set
Actual Time
Civil Twilight
Nautical Twilight
Astronomical Twilight
Moon
Length of Visible Light
Length of Day
Tomorrow will be .
, % of the Moon is Illuminated

Today's Extremes

State Highs State Lows

Community

WunderPhotos

Upload Photos

1,955,908 photos uploaded!

WunderBlog® & News

Nearby

Air Quality

  Air Quality AQ Index Pollutant
Not available.

Snow Depth

Station Depth Elevation

Earthquake Activity

City Distance Mag. Time & Date
Minimum magnitude displayed is 2.5.

Coastal Water Temperatures

Place Temperature

Stations

Nearby Weather Stations

Station Location Temp. Windchill Dew Point Humidity Wind Precip. Elev Updated Type
                   

Watches & Warnings

There are currently no watches in effect.